Time;durP1;ratioP1;P1;durP2;ratioP2;P2;SDS_P1;SDS_P2;PMS_P1;PMS_P2;Temp;Humidity;BMP_temperature;BMP_pressure;BME280_temperature;BME280_humidity;BME280_pressure;Samples;Min_cycle;Max_cycle;Signal;HPM_P1;HPM_P2
2022/01/08 00:00:37;;;;;;;2.70;2.00;;;;;;;;;;5072962;28;20450;-74
2022/01/08 00:03:03;;;;;;;2.20;1.73;;;;;;;;;;5072965;28;20497;-71
2022/01/08 00:05:29;;;;;;;2.63;1.50;;;;;;;;;;5073122;28;20874;-74
2022/01/08 00:07:55;;;;;;;3.73;2.20;;;;;;;;;;5055041;28;20438;-74
2022/01/08 00:10:22;;;;;;;1.70;1.60;;;;;;;;;;5073107;28;20967;-75
2022/01/08 00:12:50;;;;;;;1.70;1.60;;;;;;;;;;5072977;28;20402;-75
2022/01/08 00:15:16;;;;;;;2.03;1.50;;;;;;;;;;5073054;28;20429;-75
2022/01/08 00:17:42;;;;;;;1.73;1.63;;;;;;;;;;5054962;28;20410;-75
2022/01/08 00:20:09;;;;;;;1.80;1.40;;;;;;;;;;5072778;28;20902;-76
2022/01/08 00:22:35;;;;;;;2.97;1.40;;;;;;;;;;5072760;28;20402;-74
2022/01/08 00:25:01;;;;;;;1.67;1.57;;;;;;;;;;5072955;28;20752;-75
2022/01/08 00:27:27;;;;;;;1.80;1.47;;;;;;;;;;5072855;28;20900;-75
2022/01/08 00:29:53;;;;;;;1.47;1.37;;;;;;;;;;5072796;28;20428;-76
2022/01/08 00:32:19;;;;;;;2.20;1.50;;;;;;;;;;5072700;28;20409;-75
2022/01/08 00:34:45;;;;;;;2.40;1.50;;;;;;;;;;5072929;28;20403;-75
2022/01/08 00:37:11;;;;;;;2.90;1.60;;;;;;;;;;5054808;28;20429;-75
2022/01/08 00:39:38;;;;;;;2.90;1.57;;;;;;;;;;5072550;28;20465;-77
2022/01/08 00:42:04;;;;;;;2.70;1.70;;;;;;;;;;5076183;28;20748;-77
2022/01/08 00:44:30;;;;;;;3.07;1.60;;;;;;;;;;5076643;28;20796;-75
2022/01/08 00:46:56;;;;;;;1.30;1.20;;;;;;;;;;5076631;28;20933;-75
2022/01/08 00:49:24;;;;;;;2.80;1.70;;;;;;;;;;5076475;28;20500;-74
2022/01/08 00:51:51;;;;;;;2.57;2.03;;;;;;;;;;5076364;28;20396;-75
2022/01/08 00:54:17;;;;;;;3.57;2.13;;;;;;;;;;5058526;28;20511;-74
2022/01/08 00:56:43;;;;;;;5.40;1.93;;;;;;;;;;5076272;28;20488;-75
2022/01/08 00:59:09;;;;;;;3.67;2.30;;;;;;;;;;5075825;28;20579;-75
2022/01/08 01:01:35;;;;;;;2.07;1.90;;;;;;;;;;5076154;28;20401;-74
2022/01/08 01:04:01;;;;;;;2.50;2.10;;;;;;;;;;5076162;28;20413;-73
2022/01/08 01:06:27;;;;;;;2.40;1.53;;;;;;;;;;5076177;28;20406;-75
2022/01/08 01:08:53;;;;;;;3.30;2.30;;;;;;;;;;5058105;28;20574;-74
2022/01/08 01:11:19;;;;;;;2.27;2.07;;;;;;;;;;5076004;28;20899;-75
2022/01/08 01:13:45;;;;;;;1.93;1.83;;;;;;;;;;5076067;28;20421;-75
2022/01/08 01:16:11;;;;;;;2.70;2.00;;;;;;;;;;5058264;28;20488;-75
2022/01/08 01:18:37;;;;;;;3.47;2.33;;;;;;;;;;5075798;28;20491;-74
2022/01/08 01:21:03;;;;;;;2.30;2.00;;;;;;;;;;5075872;28;20505;-72
2022/01/08 01:23:41;;;;;;;2.73;2.30;;;;;;;;;;5075947;28;20410;-76
2022/01/08 01:26:11;;;;;;;3.17;1.80;;;;;;;;;;5075942;28;20499;-73
2022/01/08 01:47:01;;;;;;;2.07;1.87;;;;;;;;;;5075517;28;20487;-77
2022/01/08 01:49:28;;;;;;;2.07;1.83;;;;;;;;;;5075501;28;20406;-76
2022/01/08 01:51:55;;;;;;;2.20;2.00;;;;;;;;;;5074856;28;20409;-76
2022/01/08 01:54:21;;;;;;;2.30;2.10;;;;;;;;;;5057391;28;20515;-76
2022/01/08 01:56:47;;;;;;;2.47;2.00;;;;;;;;;;5075272;28;20402;-75
2022/01/08 01:59:14;;;;;;;4.30;2.30;;;;;;;;;;5074761;28;20560;-76
2022/01/08 02:01:40;;;;;;;2.30;2.10;;;;;;;;;;5075070;28;20453;-74
2022/01/08 02:04:06;;;;;;;2.97;2.00;;;;;;;;;;5057065;28;20940;-73
2022/01/08 02:06:32;;;;;;;3.03;2.30;;;;;;;;;;5075160;28;20492;-75
2022/01/08 02:08:58;;;;;;;1.90;1.80;;;;;;;;;;5075007;28;20410;-74
2022/01/08 02:11:24;;;;;;;3.43;1.80;;;;;;;;;;5074841;28;20537;-75
2022/01/08 02:13:50;;;;;;;4.23;2.17;;;;;;;;;;5074959;28;20870;-76
2022/01/08 02:16:17;;;;;;;2.70;2.00;;;;;;;;;;5074782;28;20428;-76
2022/01/08 02:18:46;;;;;;;1.77;1.67;;;;;;;;;;5074643;28;20476;-76
2022/01/08 02:21:13;;;;;;;2.13;1.90;;;;;;;;;;5074662;28;20958;-76
2022/01/08 02:23:40;;;;;;;1.33;1.23;;;;;;;;;;5074760;28;20393;-76
2022/01/08 02:26:06;;;;;;;3.23;1.77;;;;;;;;;;5056782;28;20504;-76
2022/01/08 02:28:33;;;;;;;2.23;1.70;;;;;;;;;;5056562;28;20418;-76
2022/01/08 02:30:59;;;;;;;1.57;1.47;;;;;;;;;;5074487;28;20405;-76
2022/01/08 02:33:26;;;;;;;2.57;1.67;;;;;;;;;;5074377;28;20923;-75
2022/01/08 02:35:52;;;;;;;2.67;1.57;;;;;;;;;;5074515;28;20398;-76
2022/01/08 02:38:18;;;;;;;5.57;1.60;;;;;;;;;;5074455;28;20453;-76
2022/01/08 02:40:51;;;;;;;1.43;1.30;;;;;;;;;;5074172;28;20445;-76
2022/01/08 02:43:17;;;;;;;1.90;1.50;;;;;;;;;;5074460;28;20492;-76
2022/01/08 02:45:43;;;;;;;2.00;1.60;;;;;;;;;;5074259;28;20445;-77
2022/01/08 02:48:09;;;;;;;3.50;1.47;;;;;;;;;;5074250;28;20402;-77
2022/01/08 02:50:36;;;;;;;2.00;1.30;;;;;;;;;;5074180;28;20404;-77
2022/01/08 02:53:02;;;;;;;1.53;1.23;;;;;;;;;;5074160;28;20489;-77
2022/01/08 02:55:28;;;;;;;1.20;1.10;;;;;;;;;;5074105;28;20912;-77
2022/01/08 02:57:54;;;;;;;1.73;1.30;;;;;;;;;;5073648;28;20553;-77
2022/01/08 03:00:20;;;;;;;1.53;1.30;;;;;;;;;;5073932;28;20506;-77
2022/01/08 03:02:48;;;;;;;1.23;1.00;;;;;;;;;;5073395;28;20409;-76
2022/01/08 03:05:14;;;;;;;1.10;1.00;;;;;;;;;;5073864;28;20403;-75
2022/01/08 03:07:44;;;;;;;1.30;1.17;;;;;;;;;;5073868;28;20397;-71
2022/01/08 03:10:11;;;;;;;3.03;1.20;;;;;;;;;;5055759;28;20405;-76
2022/01/08 03:12:40;;;;;;;3.87;1.30;;;;;;;;;;5073746;28;20489;-76
2022/01/08 03:15:07;;;;;;;3.50;1.50;;;;;;;;;;5073769;28;20743;-76
2022/01/08 03:17:33;;;;;;;4.60;1.40;;;;;;;;;;5073298;28;20403;-77
2022/01/08 03:20:04;;;;;;;1.60;1.50;;;;;;;;;;5055687;28;20473;-74
2022/01/08 03:22:31;;;;;;;1.40;1.30;;;;;;;;;;5073649;28;20394;-77
2022/01/08 03:24:57;;;;;;;1.30;1.20;;;;;;;;;;5073645;28;20459;-76
2022/01/08 03:27:23;;;;;;;1.47;1.37;;;;;;;;;;5073461;28;20410;-76
2022/01/08 03:29:49;;;;;;;4.30;1.60;;;;;;;;;;5055542;28;20433;-77
2022/01/08 03:32:15;;;;;;;2.30;1.50;;;;;;;;;;5073416;28;20755;-77
2022/01/08 03:34:41;;;;;;;1.63;1.50;;;;;;;;;;5073452;28;20742;-75
2022/01/08 03:37:07;;;;;;;3.43;1.43;;;;;;;;;;5073383;28;20406;-76
2022/01/08 03:39:33;;;;;;;1.90;1.60;;;;;;;;;;5055318;28;20477;-76
2022/01/08 03:41:59;;;;;;;1.80;1.43;;;;;;;;;;5073255;28;20899;-75
2022/01/08 03:44:25;;;;;;;1.63;1.53;;;;;;;;;;5073394;28;20405;-75
2022/01/08 03:46:51;;;;;;;3.43;2.10;;;;;;;;;;5073275;28;20429;-76
2022/01/08 03:49:25;;;;;;;3.53;1.90;;;;;;;;;;5055344;28;20419;-76
2022/01/08 03:51:54;;;;;;;1.83;1.50;;;;;;;;;;5073297;28;20410;-75
2022/01/08 03:54:20;;;;;;;2.70;1.70;;;;;;;;;;5073181;28;20401;-76
2022/01/08 03:56:47;;;;;;;1.80;1.70;;;;;;;;;;5073162;28;20406;-75
2022/01/08 03:59:13;;;;;;;2.60;1.90;;;;;;;;;;5072933;28;20473;-75
2022/01/08 04:01:39;;;;;;;2.80;2.50;;;;;;;;;;5073138;28;20401;-76
2022/01/08 04:04:05;;;;;;;1.70;1.60;;;;;;;;;;5073094;28;20491;-71
2022/01/08 04:06:31;;;;;;;2.37;1.90;;;;;;;;;;5073188;28;20422;-76
2022/01/08 04:08:58;;;;;;;2.50;2.03;;;;;;;;;;5073030;28;20408;-76
2022/01/08 04:11:24;;;;;;;2.00;1.73;;;;;;;;;;5073096;28;20473;-76
2022/01/08 04:13:50;;;;;;;2.60;2.20;;;;;;;;;;5073088;28;20513;-76
2022/01/08 04:16:21;;;;;;;3.23;1.90;;;;;;;;;;5077007;28;20459;-76
2022/01/08 04:18:47;;;;;;;2.60;2.20;;;;;;;;;;5076913;28;20477;-76
2022/01/08 04:23:45;;;;;;;3.77;2.00;;;;;;;;;;5077117;28;20512;-76
2022/01/08 04:26:11;;;;;;;2.00;1.90;;;;;;;;;;5077081;28;20430;-76
2022/01/08 04:28:37;;;;;;;3.23;2.50;;;;;;;;;;5076968;28;20982;-77
2022/01/08 04:31:03;;;;;;;2.67;1.90;;;;;;;;;;5076838;28;20410;-76
2022/01/08 04:33:29;;;;;;;2.10;1.83;;;;;;;;;;5076838;28;20417;-75
2022/01/08 04:35:55;;;;;;;2.53;2.33;;;;;;;;;;5058992;28;20410;-75
2022/01/08 04:38:21;;;;;;;3.07;1.90;;;;;;;;;;5076716;28;20456;-72
2022/01/08 04:40:47;;;;;;;2.20;1.90;;;;;;;;;;5076551;28;20618;-73
2022/01/08 04:43:14;;;;;;;3.60;2.20;;;;;;;;;;5076600;28;20919;-74
2022/01/08 04:45:40;;;;;;;2.97;2.50;;;;;;;;;;5076593;28;20413;-71
2022/01/08 04:48:07;;;;;;;2.00;1.70;;;;;;;;;;5058585;28;20429;-71
2022/01/08 04:50:33;;;;;;;2.30;1.63;;;;;;;;;;5076423;28;20539;-71
2022/01/08 04:52:59;;;;;;;2.43;2.00;;;;;;;;;;5076350;28;20481;-72
2022/01/08 04:55:25;;;;;;;1.50;1.40;;;;;;;;;;5058562;28;20462;-73
2022/01/08 04:57:52;;;;;;;2.23;1.67;;;;;;;;;;5068382;28;20480;-73
2022/01/08 05:00:19;;;;;;;2.00;1.80;;;;;;;;;;5095344;28;20553;-76
2022/01/08 05:02:46;;;;;;;2.03;1.83;;;;;;;;;;5096472;28;20894;-75
2022/01/08 05:05:12;;;;;;;2.23;2.03;;;;;;;;;;5095260;28;20416;-74
2022/01/08 05:07:38;;;;;;;2.10;2.00;;;;;;;;;;5095172;28;20770;-74
2022/01/08 05:10:05;;;;;;;2.10;1.90;;;;;;;;;;5096432;28;20405;-73
2022/01/08 05:12:31;;;;;;;2.03;1.87;;;;;;;;;;5096349;28;20957;-70
2022/01/08 05:14:57;;;;;;;3.23;2.00;;;;;;;;;;5094973;28;20945;-71
2022/01/08 05:17:31;;;;;;;1.97;1.77;;;;;;;;;;5096260;28;20537;-73
2022/01/08 05:20:00;;;;;;;1.87;1.77;;;;;;;;;;5096262;28;20473;-70
2022/01/08 05:22:29;;;;;;;2.03;1.60;;;;;;;;;;5096211;28;20958;-71
2022/01/08 05:24:55;;;;;;;2.23;1.77;;;;;;;;;;5096288;28;20397;-71
2022/01/08 05:27:22;;;;;;;2.00;1.63;;;;;;;;;;5095258;28;20429;-72
2022/01/08 05:29:49;;;;;;;4.23;1.47;;;;;;;;;;5095960;28;20778;-71
2022/01/08 05:32:16;;;;;;;1.20;1.10;;;;;;;;;;5094716;28;20429;-72
2022/01/08 05:34:47;;;;;;;1.40;1.30;;;;;;;;;;5094703;28;20440;-71
2022/01/08 05:37:13;;;;;;;1.00;1.00;;;;;;;;;;5095905;28;20424;-71
2022/01/08 05:39:39;;;;;;;0.93;0.93;;;;;;;;;;5095818;28;20484;-71
2022/01/08 05:42:05;;;;;;;1.53;1.10;;;;;;;;;;5095752;28;20444;-71
2022/01/08 05:44:31;;;;;;;1.50;1.13;;;;;;;;;;5095769;28;20784;-72
2022/01/08 05:46:57;;;;;;;1.47;1.10;;;;;;;;;;5095827;28;20409;-72
2022/01/08 05:49:23;;;;;;;1.13;1.00;;;;;;;;;;5095727;28;20401;-71
2022/01/08 05:51:49;;;;;;;1.13;1.03;;;;;;;;;;5094248;28;20420;-71
2022/01/08 05:54:15;;;;;;;1.27;0.70;;;;;;;;;;5095660;28;20925;-72
2022/01/08 05:56:41;;;;;;;0.90;0.80;;;;;;;;;;5094215;28;20423;-70
2022/01/08 05:59:07;;;;;;;0.93;0.83;;;;;;;;;;5077620;28;20886;-71
2022/01/08 06:01:34;;;;;;;0.70;0.70;;;;;;;;;;5057434;28;20874;-71
2022/01/08 06:04:00;;;;;;;0.90;0.70;;;;;;;;;;5057130;28;20775;-72
2022/01/08 06:06:27;;;;;;;0.60;0.57;;;;;;;;;;5075228;28;20408;-74
2022/01/08 06:08:53;;;;;;;1.17;0.70;;;;;;;;;;5075059;28;20471;-72
2022/01/08 06:11:19;;;;;;;0.70;0.70;;;;;;;;;;5074942;28;20890;-73
2022/01/08 06:13:44;;;;;;;0.63;0.63;;;;;;;;;;5075014;28;20415;-70
2022/01/08 06:16:11;;;;;;;1.20;0.87;;;;;;;;;;5074952;28;20409;-70
2022/01/08 06:18:37;;;;;;;1.58;0.75;;;;;;;;;;5074674;28;20477;-70
2022/01/08 06:21:04;;;;;;;0.73;0.70;;;;;;;;;;5056727;28;20580;-71
2022/01/08 06:23:31;;;;;;;0.60;0.60;;;;;;;;;;5074799;28;20494;-70
2022/01/08 06:25:57;;;;;;;1.02;0.70;;;;;;;;;;5074660;28;20610;-70
2022/01/08 06:28:23;;;;;;;0.83;0.60;;;;;;;;;;5074541;28;20195;-69
2022/01/08 06:30:49;;;;;;;1.07;0.70;;;;;;;;;;5074551;28;20408;-70
2022/01/08 06:33:15;;;;;;;0.77;0.77;;;;;;;;;;5074609;28;20411;-71
2022/01/08 06:35:41;;;;;;;0.80;0.80;;;;;;;;;;5074466;28;20244;-71
2022/01/08 06:38:07;;;;;;;0.70;0.70;;;;;;;;;;5073300;28;20189;-72
2022/01/08 06:40:33;;;;;;;1.10;0.90;;;;;;;;;;5074396;28;20175;-71
2022/01/08 06:42:59;;;;;;;1.52;0.60;;;;;;;;;;5074351;28;20498;-73
2022/01/08 06:45:25;;;;;;;0.80;0.80;;;;;;;;;;5074331;28;20258;-73
2022/01/08 06:47:51;;;;;;;1.33;0.90;;;;;;;;;;5074300;28;20518;-72
2022/01/08 06:50:17;;;;;;;0.77;0.73;;;;;;;;;;5074191;28;20179;-71
2022/01/08 06:52:43;;;;;;;1.13;0.70;;;;;;;;;;5074193;28;20177;-73
2022/01/08 06:55:09;;;;;;;1.00;0.90;;;;;;;;;;5074210;28;20904;-73
2022/01/08 06:57:36;;;;;;;0.70;0.70;;;;;;;;;;5073706;28;20449;-75
2022/01/08 07:00:03;;;;;;;1.10;0.77;;;;;;;;;;5073956;28;20688;-72
2022/01/08 07:02:29;;;;;;;0.90;0.90;;;;;;;;;;5074060;28;20266;-71
2022/01/08 07:04:55;;;;;;;0.90;0.90;;;;;;;;;;5056046;28;20177;-72
2022/01/08 07:07:21;;;;;;;1.20;1.00;;;;;;;;;;5055946;28;20216;-71
2022/01/08 07:09:47;;;;;;;1.08;1.08;;;;;;;;;;5073912;28;20398;-71
2022/01/08 07:12:13;;;;;;;0.70;0.70;;;;;;;;;;5073773;28;20206;-71
2022/01/08 07:14:39;;;;;;;2.13;0.95;;;;;;;;;;5073791;28;20716;-73
2022/01/08 07:17:05;;;;;;;1.47;1.20;;;;;;;;;;5073582;28;20732;-73
2022/01/08 07:19:31;;;;;;;0.98;0.98;;;;;;;;;;5073712;28;20695;-75
2022/01/08 07:21:59;;;;;;;3.50;1.00;;;;;;;;;;5055624;28;20345;-70
2022/01/08 07:24:25;;;;;;;1.52;1.42;;;;;;;;;;5055681;28;20404;-71
2022/01/08 07:26:51;;;;;;;1.20;1.10;;;;;;;;;;5073570;28;20164;-72
2022/01/08 07:29:17;;;;;;;2.92;1.50;;;;;;;;;;5073455;28;20448;-71
2022/01/08 07:31:43;;;;;;;2.10;1.50;;;;;;;;;;5055541;28;20179;-71
2022/01/08 07:34:09;;;;;;;1.37;1.00;;;;;;;;;;5073476;28;20163;-72
2022/01/08 07:36:35;;;;;;;1.93;1.10;;;;;;;;;;5073320;28;20406;-71
2022/01/08 07:39:01;;;;;;;1.47;1.20;;;;;;;;;;5073343;28;20827;-74
2022/01/08 07:41:27;;;;;;;1.90;1.47;;;;;;;;;;5073374;28;20401;-74
2022/01/08 07:43:54;;;;;;;5.10;1.75;;;;;;;;;;5073314;28;20429;-72
2022/01/08 07:46:20;;;;;;;1.40;1.30;;;;;;;;;;5073504;28;20675;-72
2022/01/08 07:48:46;;;;;;;1.40;1.30;;;;;;;;;;5073270;28;20190;-75
2022/01/08 07:51:12;;;;;;;2.30;1.40;;;;;;;;;;5073153;28;20626;-76
2022/01/08 07:53:38;;;;;;;1.90;1.70;;;;;;;;;;5055247;28;20405;-72
2022/01/08 07:56:05;;;;;;;2.50;1.30;;;;;;;;;;5073210;28;20405;-76
2022/01/08 07:58:31;;;;;;;2.55;1.90;;;;;;;;;;5072680;28;20473;-71
2022/01/08 08:00:58;;;;;;;1.88;1.77;;;;;;;;;;5072986;28;20256;-72
2022/01/08 08:03:25;;;;;;;2.47;1.70;;;;;;;;;;5055173;28;20175;-73
2022/01/08 08:05:51;;;;;;;1.40;1.30;;;;;;;;;;5055166;28;20454;-70
2022/01/08 08:08:17;;;;;;;2.35;2.25;;;;;;;;;;5073190;28;20634;-71
2022/01/08 08:10:43;;;;;;;2.23;2.00;;;;;;;;;;5072932;28;20183;-73
2022/01/08 08:13:09;;;;;;;2.30;2.10;;;;;;;;;;5072952;28;20417;-76
2022/01/08 08:15:35;;;;;;;2.45;2.10;;;;;;;;;;5072990;28;20424;-72
2022/01/08 08:18:01;;;;;;;3.60;2.00;;;;;;;;;;5072792;28;20167;-72
2022/01/08 08:20:27;;;;;;;1.70;1.60;;;;;;;;;;5072938;28;20912;-75
2022/01/08 08:22:53;;;;;;;2.93;1.77;;;;;;;;;;5072873;28;20403;-75
2022/01/08 08:25:19;;;;;;;9.23;2.27;;;;;;;;;;5072836;28;20470;-72
2022/01/08 08:27:46;;;;;;;5.70;2.07;;;;;;;;;;5072817;28;20422;-72
2022/01/08 08:30:12;;;;;;;2.83;1.83;;;;;;;;;;5072769;28;20508;-72
2022/01/08 08:32:38;;;;;;;2.67;1.70;;;;;;;;;;5072816;28;20426;-72
2022/01/08 08:35:05;;;;;;;2.17;1.70;;;;;;;;;;5073120;28;20170;-76
2022/01/08 08:37:31;;;;;;;2.80;1.40;;;;;;;;;;5072838;28;20397;-74
2022/01/08 08:39:57;;;;;;;2.42;1.55;;;;;;;;;;5072780;28;20458;-75
2022/01/08 08:42:23;;;;;;;2.57;2.17;;;;;;;;;;5072976;28;20169;-75
2022/01/08 08:44:49;;;;;;;1.60;1.50;;;;;;;;;;5072980;28;20475;-76
2022/01/08 08:47:15;;;;;;;2.47;1.23;;;;;;;;;;5072813;28;20807;-72
2022/01/08 08:49:41;;;;;;;1.93;1.60;;;;;;;;;;5072971;28;20492;-75
2022/01/08 08:52:07;;;;;;;1.87;1.60;;;;;;;;;;5072887;28;20435;-75
2022/01/08 08:54:33;;;;;;;1.80;1.37;;;;;;;;;;5054928;28;20433;-71
2022/01/08 08:57:00;;;;;;;3.20;1.20;;;;;;;;;;5072737;28;20414;-72
2022/01/08 08:59:26;;;;;;;1.67;1.20;;;;;;;;;;5090941;28;21006;-71
2022/01/08 09:01:52;;;;;;;3.10;1.30;;;;;;;;;;5093277;28;20421;-73
2022/01/08 09:04:18;;;;;;;0.90;0.90;;;;;;;;;;5095721;28;20931;-75
2022/01/08 09:06:44;;;;;;;2.60;1.30;;;;;;;;;;5096824;28;20528;-73
2022/01/08 09:09:10;;;;;;;1.50;1.40;;;;;;;;;;5095479;28;20416;-74
2022/01/08 09:11:36;;;;;;;1.37;1.27;;;;;;;;;;5096697;28;20412;-72
2022/01/08 09:14:02;;;;;;;6.20;1.47;;;;;;;;;;5096425;28;20440;-71
2022/01/08 09:16:29;;;;;;;1.57;1.13;;;;;;;;;;5095207;28;20413;-72
2022/01/08 09:18:55;;;;;;;1.57;1.47;;;;;;;;;;5096349;28;20482;-74
2022/01/08 09:21:21;;;;;;;1.67;1.47;;;;;;;;;;5096481;28;20460;-73
2022/01/08 09:23:47;;;;;;;2.50;1.40;;;;;;;;;;5096452;28;20401;-74
2022/01/08 09:26:13;;;;;;;3.77;1.60;;;;;;;;;;5096371;28;20412;-76
2022/01/08 09:28:39;;;;;;;1.90;1.60;;;;;;;;;;5094930;28;20421;-76
2022/01/08 09:31:05;;;;;;;4.87;1.53;;;;;;;;;;5096280;28;20805;-76
2022/01/08 09:33:32;;;;;;;5.07;1.90;;;;;;;;;;5096167;28;20401;-75
2022/01/08 09:35:58;;;;;;;4.67;1.90;;;;;;;;;;5096253;28;20414;-73
2022/01/08 09:38:24;;;;;;;3.50;1.90;;;;;;;;;;5095923;28;20464;-75
2022/01/08 09:40:51;;;;;;;2.20;1.57;;;;;;;;;;5096081;28;20417;-75
2022/01/08 09:43:18;;;;;;;6.87;1.77;;;;;;;;;;5095022;28;20405;-76
2022/01/08 09:45:44;;;;;;;6.73;1.87;;;;;;;;;;5095937;28;20899;-70
2022/01/08 09:48:10;;;;;;;3.80;1.83;;;;;;;;;;5094759;28;20825;-71
2022/01/08 09:50:36;;;;;;;2.13;1.93;;;;;;;;;;5095824;28;20939;-76
2022/01/08 09:53:02;;;;;;;2.20;1.60;;;;;;;;;;5095783;28;20887;-76
2022/01/08 09:55:29;;;;;;;5.53;1.80;;;;;;;;;;5094493;28;20401;-76
2022/01/08 09:57:55;;;;;;;3.77;2.20;;;;;;;;;;5087893;28;20469;-75
2022/01/08 10:00:22;;;;;;;1.60;1.50;;;;;;;;;;5075158;28;20472;-76
2022/01/08 10:02:50;;;;;;;3.27;1.93;;;;;;;;;;5075490;28;20438;-77
2022/01/08 10:05:16;;;;;;;2.60;1.60;;;;;;;;;;5075160;28;20943;-77
2022/01/08 10:07:43;;;;;;;2.80;2.17;;;;;;;;;;5057485;28;20909;-77
2022/01/08 10:10:12;;;;;;;2.67;1.80;;;;;;;;;;5057300;28;20421;-77
2022/01/08 10:12:52;;;;;;;2.97;1.63;;;;;;;;;;5075148;28;20448;-76
2022/01/08 10:18:21;;;;;;;2.10;1.67;;;;;;;;;;5075099;28;20492;-76
2022/01/08 10:20:50;;;;;;;2.37;1.80;;;;;;;;;;5056984;28;20614;-75
2022/01/08 10:23:19;;;;;;;1.93;1.77;;;;;;;;;;5056952;28;20414;-75
2022/01/08 10:26:03;;;;;;;3.00;1.73;;;;;;;;;;5074911;28;20417;-75
2022/01/08 10:28:32;;;;;;;2.80;2.00;;;;;;;;;;5074676;28;20437;-76
2022/01/08 10:31:17;;;;;;;2.07;1.70;;;;;;;;;;5056670;28;20914;-77
2022/01/08 10:33:44;;;;;;;2.00;1.73;;;;;;;;;;5074880;28;20417;-77
2022/01/08 10:36:11;;;;;;;2.20;1.90;;;;;;;;;;5056779;28;20428;-75
2022/01/08 10:38:38;;;;;;;2.97;1.57;;;;;;;;;;5074454;28;20473;-77
2022/01/08 10:41:04;;;;;;;5.83;2.20;;;;;;;;;;5074685;28;20477;-75
2022/01/08 10:43:31;;;;;;;2.20;1.67;;;;;;;;;;5074564;28;20409;-76
2022/01/08 10:46:08;;;;;;;1.57;1.27;;;;;;;;;;5074594;28;20402;-77
2022/01/08 10:48:35;;;;;;;2.47;1.63;;;;;;;;;;5056584;28;20431;-77
2022/01/08 10:51:10;;;;;;;2.30;1.73;;;;;;;;;;5074307;28;20409;-77
2022/01/08 10:53:52;;;;;;;1.90;1.43;;;;;;;;;;5074198;28;20401;-76
2022/01/08 10:56:25;;;;;;;3.53;1.60;;;;;;;;;;5074344;28;20412;-76
2022/01/08 10:58:54;;;;;;;2.90;1.47;;;;;;;;;;5082622;28;20494;-76
2022/01/08 11:01:43;;;;;;;2.50;1.77;;;;;;;;;;5092993;28;20432;-75
2022/01/08 11:04:10;;;;;;;1.67;1.37;;;;;;;;;;5093126;28;20420;-76
2022/01/08 11:06:56;;;;;;;1.87;1.73;;;;;;;;;;5094244;28;20950;-76
2022/01/08 11:09:23;;;;;;;7.33;1.80;;;;;;;;;;5094115;28;20806;-76
2022/01/08 11:11:50;;;;;;;5.43;2.20;;;;;;;;;;5094024;28;20812;-75
2022/01/08 11:14:34;;;;;;;3.27;1.60;;;;;;;;;;5094025;28;20503;-76
2022/01/08 11:16:59;;;;;;;5.80;1.70;;;;;;;;;;5094000;28;20508;-76
2022/01/08 11:19:27;;;;;;;1.93;1.40;;;;;;;;;;5093038;28;20572;-74
2022/01/08 11:21:54;;;;;;;2.50;1.90;;;;;;;;;;5093782;28;20420;-73
2022/01/08 11:24:22;;;;;;;1.90;1.70;;;;;;;;;;5091998;28;20443;-74
2022/01/08 11:26:50;;;;;;;3.50;1.50;;;;;;;;;;5093863;28;20401;-73
2022/01/08 11:29:20;;;;;;;1.30;1.20;;;;;;;;;;5093686;28;20433;-74
2022/01/08 11:31:46;;;;;;;2.17;1.30;;;;;;;;;;5093631;28;20416;-70
2022/01/08 11:34:12;;;;;;;2.20;1.60;;;;;;;;;;5092343;28;20777;-71
2022/01/08 11:36:38;;;;;;;3.27;1.40;;;;;;;;;;5093457;28;20405;-74
2022/01/08 11:39:08;;;;;;;3.73;1.70;;;;;;;;;;5093634;28;20463;-71
2022/01/08 11:41:34;;;;;;;2.30;1.60;;;;;;;;;;5093422;28;20397;-75
2022/01/08 11:44:03;;;;;;;3.60;1.57;;;;;;;;;;5093546;28;20420;-75
2022/01/08 11:46:34;;;;;;;3.93;1.80;;;;;;;;;;5093535;28;20411;-73
2022/01/08 11:49:00;;;;;;;1.80;1.60;;;;;;;;;;5093700;28;20401;-75
2022/01/08 11:51:27;;;;;;;2.03;1.77;;;;;;;;;;5093501;28;20413;-74
2022/01/08 11:53:58;;;;;;;3.30;1.90;;;;;;;;;;5093249;28;20413;-75
2022/01/08 11:56:38;;;;;;;3.77;1.87;;;;;;;;;;5092197;28;20430;-70
2022/01/08 11:59:10;;;;;;;2.10;1.37;;;;;;;;;;5076066;28;20579;-70
2022/01/08 12:01:38;;;;;;;5.63;1.70;;;;;;;;;;5073109;28;20409;-70
2022/01/08 12:04:04;;;;;;;2.23;1.60;;;;;;;;;;5072979;28;20409;-70
2022/01/08 12:06:35;;;;;;;2.00;1.50;;;;;;;;;;5073023;28;20429;-72
2022/01/08 12:09:07;;;;;;;3.03;1.83;;;;;;;;;;5055006;28;20414;-70
2022/01/08 12:11:34;;;;;;;2.47;1.60;;;;;;;;;;5073060;28;20444;-70
2022/01/08 12:14:10;;;;;;;3.47;1.63;;;;;;;;;;5073005;28;20406;-70
2022/01/08 12:16:37;;;;;;;2.50;1.73;;;;;;;;;;5072875;28;20441;-70
2022/01/08 12:19:04;;;;;;;2.97;1.80;;;;;;;;;;5054786;28;20485;-70
2022/01/08 12:21:41;;;;;;;4.50;1.73;;;;;;;;;;5054934;28;20951;-70
2022/01/08 12:24:25;;;;;;;1.70;1.40;;;;;;;;;;5072892;28;20408;-70
2022/01/08 12:26:51;;;;;;;2.03;1.20;;;;;;;;;;5054908;28;20858;-70
2022/01/08 12:29:36;;;;;;;2.80;1.97;;;;;;;;;;5072734;28;20449;-70
2022/01/08 12:32:24;;;;;;;2.30;1.80;;;;;;;;;;5054872;28;20430;-70
2022/01/08 12:34:51;;;;;;;2.17;1.67;;;;;;;;;;5054812;28;20417;-73
2022/01/08 12:37:18;;;;;;;4.30;1.93;;;;;;;;;;5058553;28;20393;-69
2022/01/08 12:39:44;;;;;;;5.83;2.73;;;;;;;;;;5076779;28;20464;-72
2022/01/08 12:42:19;;;;;;;2.17;1.70;;;;;;;;;;5076632;28;20398;-72
2022/01/08 12:45:04;;;;;;;2.40;1.77;;;;;;;;;;5076624;28;20405;-71
2022/01/08 12:48:00;;;;;;;2.03;1.57;;;;;;;;;;5076578;28;20393;-70
2022/01/08 12:50:36;;;;;;;2.50;2.30;;;;;;;;;;5047327;28;20433;-69
2022/01/08 12:53:09;;;;;;;2.30;1.53;;;;;;;;;;5076454;28;20402;-70
2022/01/08 12:55:36;;;;;;;5.97;1.80;;;;;;;;;;5076428;28;20428;-70
2022/01/08 12:58:13;;;;;;;3.33;1.50;;;;;;;;;;5076025;28;20460;-69
2022/01/08 13:00:59;;;;;;;3.33;1.80;;;;;;;;;;5058404;28;20531;-69
2022/01/08 13:03:26;;;;;;;2.50;2.00;;;;;;;;;;5058423;28;20434;-69
2022/01/08 13:05:53;;;;;;;2.30;1.57;;;;;;;;;;5058429;28;20408;-70
2022/01/08 13:08:23;;;;;;;3.33;1.93;;;;;;;;;;5076447;28;20539;-70
2022/01/08 13:10:54;;;;;;;2.43;2.03;;;;;;;;;;5076366;28;20397;-75
2022/01/08 13:13:21;;;;;;;4.73;2.80;;;;;;;;;;5076306;28;20398;-78
2022/01/08 13:15:47;;;;;;;2.50;1.50;;;;;;;;;;5076400;28;20403;-75
2022/01/08 13:18:17;;;;;;;2.07;1.50;;;;;;;;;;5075907;28;20928;-75
2022/01/08 13:20:43;;;;;;;4.43;1.90;;;;;;;;;;5076053;28;20762;-76
2022/01/08 13:23:12;;;;;;;2.60;1.37;;;;;;;;;;5058218;28;20414;-75
2022/01/08 13:25:38;;;;;;;2.80;1.40;;;;;;;;;;5075926;28;20416;-76
2022/01/08 13:28:04;;;;;;;1.90;1.70;;;;;;;;;;5075693;28;20461;-75
2022/01/08 13:30:31;;;;;;;3.43;1.90;;;;;;;;;;5075767;28;20406;-76
2022/01/08 13:33:01;;;;;;;2.13;1.90;;;;;;;;;;5075808;28;20538;-75
2022/01/08 13:35:27;;;;;;;3.10;1.60;;;;;;;;;;5075768;28;20430;-72
2022/01/08 13:37:53;;;;;;;2.00;1.70;;;;;;;;;;5075610;28;20405;-71
2022/01/08 13:40:19;;;;;;;2.80;1.70;;;;;;;;;;5075596;28;20467;-73
2022/01/08 13:42:45;;;;;;;2.20;1.43;;;;;;;;;;5075545;28;20398;-72
2022/01/08 13:45:12;;;;;;;3.77;2.10;;;;;;;;;;5075595;28;20414;-72
2022/01/08 13:47:40;;;;;;;4.00;2.10;;;;;;;;;;5074829;28;20823;-73
2022/01/08 13:50:13;;;;;;;5.13;1.93;;;;;;;;;;5075511;28;20732;-75
2022/01/08 13:52:48;;;;;;;4.37;2.10;;;;;;;;;;5075389;28;20419;-72
2022/01/08 13:55:14;;;;;;;2.50;2.00;;;;;;;;;;5075322;28;20908;-76
2022/01/08 13:57:40;;;;;;;2.97;1.97;;;;;;;;;;5074888;28;20470;-74
2022/01/08 14:00:12;;;;;;;3.80;2.10;;;;;;;;;;5057143;28;20478;-75
2022/01/08 14:02:38;;;;;;;5.10;1.80;;;;;;;;;;5057163;28;20441;-73
2022/01/08 14:05:04;;;;;;;2.90;2.10;;;;;;;;;;5075173;28;20960;-75
2022/01/08 14:07:38;;;;;;;2.17;1.90;;;;;;;;;;5057187;28;20445;-75
2022/01/08 14:10:05;;;;;;;2.60;1.80;;;;;;;;;;5075078;28;20425;-72
2022/01/08 14:12:31;;;;;;;4.90;1.97;;;;;;;;;;5075027;28;20911;-74
2022/01/08 14:15:03;;;;;;;1.87;1.50;;;;;;;;;;5074960;28;20407;-75
2022/01/08 14:17:30;;;;;;;3.50;2.10;;;;;;;;;;5074831;28;20414;-71
2022/01/08 14:19:59;;;;;;;2.00;1.70;;;;;;;;;;5074858;28;20792;-71
2022/01/08 14:22:27;;;;;;;3.70;2.00;;;;;;;;;;5074894;28;20410;-74
2022/01/08 14:24:53;;;;;;;2.87;1.70;;;;;;;;;;5056971;28;20912;-75
2022/01/08 14:27:22;;;;;;;4.30;1.63;;;;;;;;;;5074748;28;20401;-74
2022/01/08 14:29:49;;;;;;;1.53;1.37;;;;;;;;;;5074752;28;20810;-74
2022/01/08 14:32:16;;;;;;;2.47;1.90;;;;;;;;;;5074636;28;20390;-75
2022/01/08 14:34:47;;;;;;;3.20;2.03;;;;;;;;;;5056803;28;20428;-73
2022/01/08 14:37:16;;;;;;;2.40;1.43;;;;;;;;;;5074452;28;20434;-71
2022/01/08 14:39:45;;;;;;;2.87;1.80;;;;;;;;;;5074423;28;20477;-76
2022/01/08 14:42:18;;;;;;;3.43;1.83;;;;;;;;;;5056654;28;20414;-77
2022/01/08 14:44:53;;;;;;;3.83;1.97;;;;;;;;;;5074474;28;20937;-74
2022/01/08 14:47:39;;;;;;;1.87;1.67;;;;;;;;;;5074567;28;20413;-75
2022/01/08 14:50:09;;;;;;;2.63;1.80;;;;;;;;;;5074366;28;20406;-74
2022/01/08 14:52:35;;;;;;;2.50;1.70;;;;;;;;;;5074432;28;20406;-72
2022/01/08 14:55:02;;;;;;;1.60;1.50;;;;;;;;;;5056334;28;20932;-75
2022/01/08 14:57:28;;;;;;;2.60;1.83;;;;;;;;;;5073876;28;20998;-75
2022/01/08 14:59:54;;;;;;;4.30;1.83;;;;;;;;;;5073160;28;20553;-74
2022/01/08 15:02:21;;;;;;;2.20;2.00;;;;;;;;;;5074136;28;20439;-73
2022/01/08 15:04:47;;;;;;;2.70;1.80;;;;;;;;;;5074111;28;20590;-76
2022/01/08 15:07:13;;;;;;;4.00;2.20;;;;;;;;;;5056165;28;20882;-75
2022/01/08 15:09:40;;;;;;;3.30;1.90;;;;;;;;;;5073938;28;20442;-74